Currently 90°F in Hemet, California, USA
90°F
90°F / 67°F
2 mph SW
0.00"
Saturday, September 22, 2018 11:54 AM PDT

Hemet, California Weather Summary
Last 36 Hours

Temperature Winds Hourly Humidity Dewpoint
Time Report Norm Report Norm Max Gusts Precip. Rpt. Norm Rpt. Norm Pressure
1Sat 11:54 AM  90.1°F  83°F  2 mph SW  1 mph  7 mph  0.00"  23%  30%  46°F  47°F  29.85"
2Sat 11:52 AM  90.1°F  83°F  4 mph W  1 mph  7 mph  ----  20%  30%  42°F  47°F  29.85"
Sat 11:00 AM  86.4°F  79°F  1 mph S  1 mph  3 mph  0.00"  25%  35%  45°F  48°F  29.87"
Sat 10:00 AM  79.0°F  75°F  2 mph S  calm  3 mph  0.00"  36%  41%  49°F  49°F  29.88"
Sat 09:00 AM  73.9°F  71°F  calm  calm  none  0.00"  40%  46%  47°F  49°F  29.88"
Sat 08:00 AM  70.0°F  67°F  calm  calm  none  0.00"  41%  47%  44°F  46°F  29.88"
Sat 07:00 AM  68.7°F  64°F  calm  calm  none  0.00"  43%  48%  44°F  43°F  29.86"
Sat 06:00 AM  68.4°F  64°F  calm  calm  none  0.00"  45%  48%  45°F  43°F  29.86"
3Sat 05:05 AM  66.7°F  64°F  calm  calm  none  ----  48%  48%  46°F  44°F  29.86"
Sat 05:00 AM  67.1°F  64°F  calm  calm  none  0.00"  48%  48%  46°F  44°F  29.86"
Sat 04:00 AM  69.1°F  64°F  calm  calm  none  0.00"  33%  49%  38°F  44°F  29.86"
Sat 03:00 AM  69.1°F  65°F  calm  calm  none  0.00"  36%  50%  40°F  45°F  29.87"
Sat 02:00 AM  69.8°F  65°F  calm  calm  none  0.00"  38%  51%  42°F  46°F  29.88"
Sat 01:00 AM  71.1°F  66°F  calm  calm  none  0.00"  34%  51%  40°F  46°F  29.89"
Sat 12:00 AM  70.9°F  66°F  calm  calm  none  0.00"  39%  50%  44°F  47°F  29.90"
Fri 11:00 PM  71.4°F  67°F  calm  calm  none  0.00"  40%  49%  45°F  47°F  29.90"
Fri 10:00 PM  73.9°F  69°F  calm  calm  none  0.00"  37%  47%  45°F  47°F  29.90"
Fri 09:00 PM  77.2°F  71°F  calm  calm  none  0.00"  32%  45%  44°F  48°F  29.89"
Fri 08:00 PM  81.0°F  74°F  calm  calm  3 mph  0.00"  28%  41%  44°F  48°F  29.88"
Fri 07:00 PM  83.1°F  78°F  1 mph SW  1 mph  7 mph  0.00"  26%  36%  43°F  48°F  29.85"
Fri 06:00 PM  90.7°F  83°F  5 mph SW  2 mph  8 mph  0.00"  21%  30%  44°F  47°F  29.85"
Fri 05:00 PM  93.7°F  87°F  5 mph SW  3 mph  10 mph  0.00"  16%  26%  39°F  46°F  29.84"
Fri 04:00 PM  95.4°F  88°F  4 mph W  3 mph  10 mph  0.00"  13%  23%  35°F  45°F  29.85"
Fri 03:00 PM  93.9°F  88°F  4 mph SW  3 mph  10 mph  0.00"  12%  23%  32°F  44°F  29.86"
Fri 02:00 PM  92.3°F  87°F  5 mph SW  2 mph  12 mph  0.00"  16%  24%  38°F  45°F  29.88"
Fri 01:00 PM  89.4°F  85°F  6 mph W  2 mph  10 mph  0.00"  20%  27%  42°F  46°F  29.89"
Fri 12:00 PM  86.4°F  83°F  4 mph W  1 mph  8 mph  0.00"  26%  31%  46°F  48°F  29.91"
Fri 11:00 AM  81.3°F  79°F  2 mph W  1 mph  8 mph  0.00"  42%  36%  55°F  49°F  29.91"
Fri 10:00 AM  76.3°F  74°F  3 mph W  calm  6 mph  0.00"  46%  42%  53°F  49°F  29.90"
Fri 09:00 AM  71.6°F  71°F  calm  calm  3 mph  0.00"  58%  47%  56°F  49°F  29.88"
Fri 08:00 AM  67.8°F  67°F  calm  calm  none  0.00"  52%  49%  49°F  46°F  29.89"
Fri 07:00 AM  61.5°F  64°F  calm  calm  none  0.00"  74%  50%  53°F  44°F  29.88"
Fri 06:00 AM  62.4°F  64°F  calm  calm  none  0.00"  72%  50%  53°F  44°F  29.86"
Fri 05:00 AM  63.1°F  64°F  calm  calm  none  0.00"  73%  50%  54°F  44°F  29.85"
Fri 04:00 AM  62.6°F  64°F  calm  calm  none  0.00"  73%  50%  54°F  45°F  29.85"
Fri 03:00 AM  62.4°F  64°F  calm  calm  none  0.00"  73%  51%  53°F  45°F  29.85"
Fri 02:00 AM  63.7°F  65°F  calm  calm  none  0.00"  69%  52%  53°F  46°F  29.85"
Fri 01:00 AM  65.7°F  66°F  calm  calm  none  0.00"  66%  51%  54°F  47°F  29.85"
Fri 12:00 AM  66.4°F  66°F  calm  calm  none  0.00"  65%  51%  54°F  47°F  29.85"

  1. Current weather data. No green row appears if the current weather data is also the high or low for the current day.
  2. High temperature for the current day.
  3. Low temperature for the current day.

The Hemet weather pages are a service of WeatherCurrents. Hemet, California is located in the San Jacinto Valley, in western Riverside County, at the foot of the San Jacinto mountains.
Copyright ©Sat Sep 22 11:55:00 PDT 2018  WeatherCurrents. All rights reserved. - Submit questions and comments - Privacy Policy

This page automatically refreshes every 10 minutes.